This is the latest recevied weather packets stored in our database for station/object K8RRT. If no packets are shown the sender has not sent any weather packets the latest 10 day(s).
| Time | Temp. | Humidity | Pressure | Rain* | Wind** | Luminosity | Snow |
|---|---|---|---|---|---|---|---|
| 1788287656 | 33.89° C | 59% | 1014.6 hPa | 0 mm | - | 726 W/m² | - |
| 1788287352 | 33.89° C | 57% | 1014.7 hPa | 0 mm | - | 692 W/m² | - |
| 1788287047 | 33.33° C | 64% | 1014.8 hPa | 0 mm | - | 693 W/m² | - |
| 1788286742 | 32.78° C | 66% | 1014.8 hPa | 0 mm | - | 687 W/m² | - |
| 1788286437 | 32.78° C | 65% | 1014.8 hPa | 0 mm | - | 680 W/m² | - |
| 1788286136 | 31.67° C | 68% | 1015 hPa | 0 mm | - | 365 W/m² | - |
| 1788285835 | 32.22° C | 65% | 1015 hPa | 0 mm | - | 197 W/m² | - |
| 1788285533 | 32.22° C | 65% | 1015.4 hPa | 0 mm | - | 161 W/m² | - |
| 1788285228 | 32.22° C | 66% | 1015.2 hPa | 0 mm | - | 246 W/m² | - |
| 1788284924 | 32.22° C | 67% | 1015.2 hPa | 0 mm | - | 202 W/m² | - |
| 1788284619 | 32.78° C | 69% | 1015.2 hPa | 0 mm | - | 189 W/m² | - |
| 1788284315 | 33.33° C | 66% | 1015.2 hPa | 0 mm | - | 781 W/m² | - |
| 1788284010 | 33.33° C | 65% | 1015.5 hPa | 0 mm | - | 222 W/m² | - |
| 1788283706 | 33.33° C | 65% | 1015.6 hPa | 0 mm | - | 684 W/m² | - |
| 1788283405 | 32.78° C | 68% | 1015.6 hPa | 0 mm | - | 656 W/m² | - |
| 1788283103 | 32.22° C | 66% | 1015.6 hPa | 0 mm | - | 680 W/m² | - |
| 1788282803 | 32.22° C | 67% | 1015.7 hPa | 0 mm | - | 695 W/m² | - |
| 1788282497 | 32.22° C | 67% | 1015.6 hPa | 0 mm | - | 185 W/m² | - |
| 1788282197 | 32.22° C | 68% | 1015.8 hPa | 0 mm | - | 686 W/m² | - |
| 1788281895 | 32.22° C | 68% | 1015.6 hPa | 0 mm | - | 692 W/m² | - |
| 1788281590 | 31.67° C | 70% | 1015.7 hPa | 0 mm | - | 729 W/m² | - |
| 1788281287 | 32.22° C | 70% | 1015.7 hPa | 0 mm | - | 723 W/m² | - |
| 1788280982 | 32.22° C | 72% | 1015.4 hPa | 0 mm | - | 727 W/m² | - |
| 1788280676 | 32.22° C | 69% | 1015.7 hPa | 0 mm | - | 674 W/m² | - |
| 1788280370 | 31.67° C | 70% | 1015.6 hPa | 0 mm | - | 709 W/m² | - |
* Rain latest hour (hover to see other rain measurements)
** Current wind speed in m/s (hover to see current wind gust speed)